createdAt,value
2022-11-23T00:01:30.125Z,12.82
2022-11-23T00:04:01.174Z,13.77
2022-11-23T00:06:28.674Z,14.07
2022-11-23T00:08:56.050Z,12.95
2022-11-23T00:11:25.415Z,14.32
2022-11-23T00:13:53.132Z,14.88
2022-11-23T00:16:24.965Z,14.45
2022-11-23T00:19:00.452Z,14.15
2022-11-23T00:21:29.952Z,14.52
2022-11-23T00:23:57.491Z,14.45
2022-11-23T00:26:27.556Z,14.27
2022-11-23T00:28:57.276Z,15.02
2022-11-23T00:31:24.801Z,13.90
2022-11-23T00:33:55.504Z,14.63
2022-11-23T00:36:26.475Z,15.38
2022-11-23T00:38:53.837Z,14.90
2022-11-23T00:41:23.684Z,15.00
2022-11-23T00:43:53.575Z,14.93
2022-11-23T00:46:23.042Z,13.82
2022-11-23T00:48:53.141Z,12.98
2022-11-23T00:51:26.550Z,13.35
2022-11-23T00:53:56.681Z,14.07
2022-11-23T00:56:27.515Z,14.90
2022-11-23T00:58:56.243Z,14.15
2022-11-23T01:01:31.789Z,13.90
2022-11-23T01:04:02.749Z,14.27
2022-11-23T01:06:40.342Z,14.60
2022-11-23T01:09:12.028Z,15.63
2022-11-23T01:11:42.129Z,14.85
2022-11-23T01:14:11.760Z,14.77
2022-11-23T01:16:41.775Z,17.02
2022-11-23T01:19:13.276Z,16.67
2022-11-23T01:21:40.662Z,15.70
2022-11-23T01:24:13.270Z,15.10
2022-11-23T01:26:41.486Z,16.23
2022-11-23T01:29:08.742Z,15.43
2022-11-23T01:31:43.208Z,14.98
2022-11-23T01:34:14.589Z,15.52
2022-11-23T01:36:42.829Z,15.77
2022-11-23T01:39:11.413Z,19.58
2022-11-23T01:41:42.486Z,20.70
2022-11-23T01:44:32.937Z,19.92
2022-11-23T01:47:06.090Z,17.08
2022-11-23T01:49:45.176Z,18.57
2022-11-23T01:52:21.695Z,17.15
2022-11-23T01:54:52.530Z,18.02
2022-11-23T01:57:26.311Z,18.52
2022-11-23T01:59:54.917Z,17.10
2022-11-23T02:02:22.418Z,17.25
2022-11-23T02:04:49.900Z,18.90
2022-11-23T02:07:20.592Z,19.15
2022-11-23T02:09:50.485Z,18.95
2022-11-23T02:12:20.369Z,19.60
2022-11-23T02:14:48.011Z,18.13
2022-11-23T02:17:18.792Z,18.83
2022-11-23T02:20:00.723Z,20.90
2022-11-23T02:22:37.332Z,17.60
2022-11-23T02:25:11.124Z,14.52
2022-11-23T02:27:46.813Z,15.57
2022-11-23T02:30:14.382Z,15.13
2022-11-23T02:32:46.903Z,15.25
2022-11-23T02:35:18.718Z,15.50
2022-11-23T02:37:46.100Z,15.73
2022-11-23T02:40:34.283Z,16.25
2022-11-23T02:46:01.798Z,14.55
2022-11-23T02:48:31.607Z,14.07
2022-11-23T02:50:58.865Z,14.90
2022-11-23T02:53:28.368Z,17.17
2022-11-23T02:55:55.511Z,16.38
2022-11-23T02:58:25.017Z,16.48
2022-11-23T03:03:33.652Z,17.50
2022-11-23T03:06:00.945Z,17.30
2022-11-23T03:08:27.909Z,16.17
2022-11-23T03:10:56.027Z,15.85
2022-11-23T03:13:25.568Z,17.92
2022-11-23T03:15:55.431Z,17.15
2022-11-23T03:18:25.971Z,19.05
2022-11-23T03:20:53.233Z,18.65
2022-11-23T03:23:20.231Z,18.65
2022-11-23T03:25:55.747Z,19.42
2022-11-23T03:28:22.935Z,20.20
2022-11-23T03:30:51.332Z,18.10
2022-11-23T03:33:18.977Z,20.02
2022-11-23T03:35:48.800Z,20.63
2022-11-23T03:38:18.018Z,18.92
2022-11-23T03:40:46.043Z,18.60
2022-11-23T03:43:14.544Z,19.05
2022-11-23T03:45:42.352Z,17.38
2022-11-23T03:48:10.638Z,17.90
2022-11-23T03:50:37.982Z,18.98
2022-11-23T03:53:05.157Z,17.70
2022-11-23T03:55:33.411Z,17.08
2022-11-23T03:58:00.781Z,17.63
2022-11-23T04:00:29.069Z,18.38
2022-11-23T04:02:56.242Z,19.90
2022-11-23T04:05:23.851Z,18.55
2022-11-23T04:07:51.331Z,17.80
2022-11-23T04:10:20.866Z,21.45
2022-11-23T04:12:52.252Z,20.88
2022-11-23T04:15:20.160Z,19.98
2022-11-23T04:17:48.159Z,19.38
2022-11-23T04:20:18.004Z,20.20
2022-11-23T04:22:44.974Z,21.40
2022-11-23T04:25:14.500Z,20.52
2022-11-23T04:27:44.724Z,20.00
2022-11-23T04:30:12.400Z,20.50
2022-11-23T04:32:39.361Z,19.35
2022-11-23T04:35:07.105Z,20.42
2022-11-23T04:37:34.146Z,20.50
2022-11-23T04:40:06.925Z,19.02
2022-11-23T04:42:36.417Z,18.60
2022-11-23T04:45:04.024Z,17.38
2022-11-23T04:47:31.219Z,16.65
2022-11-23T04:49:58.618Z,17.15
2022-11-23T04:52:25.621Z,17.70
2022-11-23T04:54:53.042Z,16.52
2022-11-23T04:57:20.247Z,16.70
2022-11-23T04:59:47.531Z,15.35
2022-11-23T05:02:14.610Z,18.25
2022-11-23T05:04:42.199Z,16.77
2022-11-23T05:07:09.251Z,16.00
2022-11-23T05:09:36.878Z,16.58
2022-11-23T05:12:04.227Z,17.77
2022-11-23T05:14:31.558Z,17.55
2022-11-23T05:16:58.717Z,16.67
2022-11-23T05:19:26.143Z,15.80
2022-11-23T05:21:53.174Z,16.95
2022-11-23T05:24:20.564Z,17.88
2022-11-23T05:26:51.995Z,17.83
2022-11-23T05:29:22.221Z,19.13
2022-11-23T05:31:49.285Z,19.30
2022-11-23T05:34:16.651Z,20.80
2022-11-23T05:36:43.744Z,20.23
2022-11-23T05:39:11.435Z,23.90
2022-11-23T05:41:40.727Z,23.50
2022-11-23T05:44:10.417Z,22.95
2022-11-23T05:46:37.575Z,25.67
2022-11-23T05:49:04.897Z,26.58
2022-11-23T05:51:32.259Z,28.30
2022-11-23T05:54:01.274Z,29.95
2022-11-23T05:56:32.045Z,29.90
2022-11-23T05:59:01.101Z,31.75
2022-11-23T06:01:28.145Z,29.98
2022-11-23T06:03:55.574Z,31.35
2022-11-23T06:06:25.220Z,32.90
2022-11-23T06:08:55.127Z,37.92
2022-11-23T06:11:24.938Z,34.10
2022-11-23T06:13:54.680Z,31.45
2022-11-23T06:16:21.698Z,32.22
2022-11-23T06:18:51.586Z,29.45
2022-11-23T06:21:18.929Z,29.00
2022-11-23T06:23:49.398Z,25.55
2022-11-23T06:26:16.564Z,26.77
2022-11-23T06:28:44.043Z,27.80
2022-11-23T06:31:13.601Z,27.13
2022-11-23T06:33:40.914Z,28.67
2022-11-23T06:36:10.925Z,25.35
2022-11-23T06:38:38.398Z,28.27
2022-11-23T06:41:05.653Z,29.52
2022-11-23T06:43:37.681Z,33.63
2022-11-23T06:46:06.237Z,37.45
2022-11-23T06:48:34.124Z,36.08
2022-11-23T06:51:01.769Z,33.70
2022-11-23T06:53:31.549Z,32.42
2022-11-23T06:56:02.211Z,29.80
2022-11-23T06:58:31.880Z,35.92
2022-11-23T07:01:03.921Z,38.53
2022-11-23T07:03:33.553Z,37.83
2022-11-23T07:06:07.902Z,39.33
2022-11-23T07:08:36.700Z,37.22
2022-11-23T07:11:06.535Z,33.63
2022-11-23T07:13:33.972Z,37.40
2022-11-23T07:16:03.571Z,38.08
2022-11-23T07:18:31.159Z,37.72
2022-11-23T07:20:58.997Z,38.00
2022-11-23T07:23:28.680Z,36.95
2022-11-23T07:25:57.925Z,39.53
2022-11-23T07:28:25.452Z,37.17
2022-11-23T07:30:55.257Z,39.20
2022-11-23T07:33:22.589Z,39.33
2022-11-23T07:35:51.988Z,39.47
2022-11-23T07:38:21.606Z,40.05
2022-11-23T07:40:50.098Z,37.83
2022-11-23T07:43:17.550Z,37.95
2022-11-23T07:45:44.505Z,34.40
2022-11-23T07:48:12.012Z,33.05
2022-11-23T07:50:40.010Z,33.22
2022-11-23T07:53:07.881Z,34.30
2022-11-23T07:55:35.198Z,31.45
2022-11-23T07:58:02.628Z,32.45
2022-11-23T08:00:31.937Z,31.02
2022-11-23T08:03:26.713Z,29.55
2022-11-23T08:05:50.030Z,28.38
2022-11-23T08:08:17.521Z,24.83
2022-11-23T08:10:52.627Z,24.35
2022-11-23T08:13:24.131Z,23.10
2022-11-23T08:15:55.367Z,22.83
2022-11-23T08:18:28.112Z,20.17
2022-11-23T08:20:55.699Z,20.15
2022-11-23T08:23:24.260Z,20.50
2022-11-23T08:25:51.441Z,18.58
2022-11-23T08:28:19.226Z,19.85
2022-11-23T08:30:51.669Z,22.98
2022-11-23T08:33:21.626Z,27.90
2022-11-23T08:35:51.763Z,26.65
2022-11-23T08:38:19.108Z,40.20
2022-11-23T08:40:46.215Z,37.80
2022-11-23T08:43:13.692Z,36.58
2022-11-23T08:45:40.765Z,36.53
2022-11-23T08:48:08.183Z,35.35
2022-11-23T08:50:35.410Z,35.45
2022-11-23T08:53:03.047Z,37.72
2022-11-23T08:55:30.129Z,38.05
2022-11-23T08:58:00.727Z,42.35
2022-11-23T09:00:28.625Z,43.90
2022-11-23T09:02:56.486Z,45.78
2022-11-23T09:05:25.180Z,44.92
2022-11-23T09:07:52.556Z,41.97
2022-11-23T09:10:19.744Z,41.67
2022-11-23T09:12:48.325Z,40.60
2022-11-23T09:15:20.389Z,39.85
2022-11-23T09:17:48.294Z,41.75
2022-11-23T09:20:15.701Z,42.40
2022-11-23T09:22:43.069Z,47.58
2022-11-23T09:25:14.529Z,49.50
2022-11-23T09:27:44.305Z,50.33
2022-11-23T09:30:14.345Z,54.83
2022-11-23T09:32:46.492Z,53.67
2022-11-23T09:35:13.535Z,47.05
2022-11-23T09:37:43.320Z,44.40
2022-11-23T09:40:16.132Z,40.10
2022-11-23T09:43:17.699Z,37.17
2022-11-23T09:45:48.127Z,36.22
2022-11-23T09:48:44.779Z,33.88
2022-11-23T09:51:15.204Z,31.02
2022-11-23T09:53:53.540Z,32.85
2022-11-23T09:56:25.517Z,33.53
2022-11-23T09:58:56.239Z,36.78
2022-11-23T10:01:24.610Z,38.10
2022-11-23T10:03:51.983Z,39.50
2022-11-23T10:06:30.338Z,42.72
2022-11-23T10:09:15.352Z,41.60
2022-11-23T10:11:47.440Z,41.47
2022-11-23T10:14:33.081Z,40.15
2022-11-23T10:17:09.585Z,38.63
2022-11-23T10:19:46.842Z,37.90
2022-11-23T10:22:26.434Z,37.72
2022-11-23T10:25:01.484Z,36.00
2022-11-23T10:27:31.648Z,37.30
2022-11-23T10:30:02.016Z,38.35
2022-11-23T10:32:57.017Z,38.25
2022-11-23T10:35:33.153Z,39.90
2022-11-23T10:38:16.761Z,39.80
2022-11-23T10:41:03.534Z,39.50
2022-11-23T10:43:51.032Z,36.55
2022-11-23T10:46:24.777Z,35.78
2022-11-23T10:48:52.803Z,35.30
2022-11-23T10:51:23.852Z,34.35
2022-11-23T10:54:04.989Z,32.33
2022-11-23T10:56:35.413Z,31.40
2022-11-23T10:59:02.542Z,26.02
2022-11-23T11:01:29.904Z,24.33
2022-11-23T11:04:04.553Z,18.88
2022-11-23T11:06:34.416Z,14.80
2022-11-23T11:09:18.511Z,10.60
2022-11-23T11:11:52.236Z,10.05
2022-11-23T11:14:22.712Z,9.23
2022-11-23T11:16:54.423Z,9.13
2022-11-23T11:19:27.962Z,8.65
2022-11-23T11:21:57.222Z,9.80
2022-11-23T11:24:45.066Z,11.63
2022-11-23T11:27:20.377Z,12.38
2022-11-23T11:29:48.556Z,14.32
2022-11-23T11:32:31.506Z,13.63
2022-11-23T11:35:20.648Z,14.25
2022-11-23T11:37:55.955Z,15.18
2022-11-23T11:40:38.513Z,16.95
2022-11-23T11:43:19.435Z,22.25
2022-11-23T11:46:21.419Z,18.65
2022-11-23T11:48:40.979Z,17.02
2022-11-23T11:51:08.076Z,20.80
2022-11-23T11:53:45.349Z,22.90
2022-11-23T11:56:16.965Z,23.05
2022-11-23T11:59:14.363Z,24.02
2022-11-23T12:02:19.492Z,22.90
2022-11-23T12:05:11.656Z,23.13
2022-11-23T12:07:49.268Z,22.33
2022-11-23T12:10:23.579Z,22.92
2022-11-23T12:12:50.703Z,22.30
2022-11-23T12:18:36.303Z,20.13
2022-11-23T12:21:12.828Z,19.92
2022-11-23T12:23:46.055Z,18.17
2022-11-23T12:26:41.586Z,17.00
2022-11-23T12:29:20.723Z,17.90
2022-11-23T12:31:54.036Z,17.02
2022-11-23T12:35:03.009Z,32.97
2022-11-23T12:37:45.426Z,16.42
2022-11-23T12:40:27.620Z,15.80
2022-11-23T12:43:26.454Z,14.23
2022-11-23T12:46:20.211Z,11.45
2022-11-23T12:51:49.324Z,11.05
2022-11-23T12:54:35.126Z,13.17
2022-11-23T12:57:14.150Z,13.32
2022-11-23T13:00:13.751Z,14.35
2022-11-23T13:02:56.575Z,15.68
2022-11-23T13:06:11.997Z,15.70
2022-11-23T13:08:58.083Z,15.33
2022-11-23T13:11:46.558Z,18.33
2022-11-23T13:14:25.617Z,19.10
2022-11-23T13:17:25.133Z,19.85
2022-11-23T13:20:01.715Z,20.77
2022-11-23T13:22:30.928Z,19.80
2022-11-23T13:25:21.190Z,20.85
2022-11-23T13:27:48.514Z,22.25
2022-11-23T13:30:52.002Z,20.27
2022-11-23T13:36:00.064Z,19.63
2022-11-23T13:38:42.400Z,22.35
2022-11-23T13:41:34.573Z,21.02
2022-11-23T13:44:27.874Z,26.95
2022-11-23T13:47:06.211Z,29.73
2022-11-23T13:49:50.213Z,22.98
2022-11-23T13:52:23.227Z,21.25
2022-11-23T13:55:09.291Z,21.13
2022-11-23T13:58:04.005Z,19.70
2022-11-23T14:00:50.558Z,22.40
2022-11-23T14:03:42.835Z,22.73
2022-11-23T14:06:34.498Z,19.73
2022-11-23T14:09:10.438Z,19.65
2022-11-23T14:11:49.227Z,20.05
2022-11-23T14:14:21.039Z,20.52
2022-11-23T14:16:54.417Z,19.13
2022-11-23T14:19:47.152Z,19.52
2022-11-23T14:22:36.459Z,20.67
2022-11-23T14:25:31.586Z,21.00
2022-11-23T14:28:19.555Z,21.45
2022-11-23T14:31:05.493Z,21.55
2022-11-23T14:33:54.617Z,22.55
2022-11-23T14:36:35.654Z,22.52
2022-11-23T14:39:50.977Z,22.13
2022-11-23T14:42:21.405Z,23.17
2022-11-23T14:44:49.580Z,42.33
2022-11-23T14:47:34.146Z,53.53
2022-11-23T14:50:01.666Z,27.25
2022-11-23T14:52:33.873Z,27.40
2022-11-23T14:55:05.644Z,25.35
2022-11-23T14:57:44.193Z,25.73
2022-11-23T15:00:32.059Z,26.10
2022-11-23T15:03:27.005Z,26.70
2022-11-23T15:06:08.495Z,26.25
2022-11-23T15:08:51.017Z,29.50
2022-11-23T15:11:25.739Z,29.17
2022-11-23T15:13:54.624Z,28.45
2022-11-23T15:16:22.125Z,29.65
2022-11-23T15:18:49.557Z,28.23
2022-11-23T15:21:27.850Z,27.00
2022-11-23T15:23:58.047Z,29.08
2022-11-23T15:29:36.175Z,29.83
2022-11-23T15:32:30.731Z,29.63
2022-11-23T15:35:05.377Z,28.63
2022-11-23T15:37:37.441Z,35.80
2022-11-23T15:40:05.048Z,32.55
2022-11-23T15:42:32.753Z,34.63
2022-11-23T15:45:02.104Z,34.05
2022-11-23T15:47:30.612Z,34.83
2022-11-23T15:50:08.863Z,32.20
2022-11-23T15:52:38.255Z,36.10
2022-11-23T15:55:13.944Z,35.38
2022-11-23T15:57:44.076Z,42.05
2022-11-23T16:00:23.864Z,40.45
2022-11-23T16:03:11.659Z,42.45
2022-11-23T16:05:41.921Z,44.53
2022-11-23T16:08:24.557Z,45.08
2022-11-23T16:10:57.069Z,46.90
2022-11-23T16:13:38.962Z,47.03
2022-11-23T16:16:13.853Z,46.85
2022-11-23T16:18:46.529Z,46.15
2022-11-23T16:21:19.598Z,47.30
2022-11-23T16:23:58.947Z,50.35
2022-11-23T16:26:33.564Z,53.28
2022-11-23T16:29:01.343Z,55.65
2022-11-23T16:31:35.669Z,55.05
2022-11-23T16:34:09.252Z,53.53
2022-11-23T16:36:36.400Z,88.97
2022-11-23T16:39:05.811Z,56.42
2022-11-23T16:41:33.328Z,55.97
2022-11-23T16:44:00.864Z,53.47
2022-11-23T16:46:28.401Z,51.47
2022-11-23T16:48:57.308Z,53.08
2022-11-23T16:51:24.495Z,52.80
2022-11-23T16:54:13.074Z,50.22
2022-11-23T16:56:43.556Z,49.10
2022-11-23T16:59:17.244Z,54.00
2022-11-23T17:01:55.492Z,57.45
2022-11-23T17:04:24.916Z,63.75
2022-11-23T17:06:52.112Z,59.92
2022-11-23T17:09:21.937Z,57.78
2022-11-23T17:11:51.215Z,57.97
2022-11-23T17:14:25.312Z,95.28
2022-11-23T17:16:57.549Z,57.63
2022-11-23T17:19:26.277Z,50.92
2022-11-23T17:21:53.274Z,47.75
2022-11-23T17:24:20.864Z,48.08
2022-11-23T17:26:50.799Z,48.03
2022-11-23T17:29:21.411Z,45.47
2022-11-23T17:31:51.290Z,46.50
2022-11-23T17:34:21.194Z,46.42
2022-11-23T17:36:54.263Z,48.17
2022-11-23T17:39:26.432Z,91.75
2022-11-23T17:41:53.744Z,53.17
2022-11-23T17:44:23.671Z,47.00
2022-11-23T17:46:52.763Z,43.70
2022-11-23T17:49:20.209Z,43.20
2022-11-23T17:51:49.705Z,43.50
2022-11-23T17:54:16.993Z,42.25
2022-11-23T17:56:46.377Z,46.30
2022-11-23T17:59:16.203Z,45.80
2022-11-23T18:01:45.548Z,42.83
2022-11-23T18:04:13.071Z,64.90
2022-11-23T18:06:42.456Z,57.60
2022-11-23T18:09:09.941Z,57.05
2022-11-23T18:11:39.434Z,61.95
2022-11-23T18:14:09.081Z,60.63
2022-11-23T18:16:38.661Z,58.05
2022-11-23T18:19:06.183Z,61.10
2022-11-23T18:21:35.843Z,57.33
2022-11-23T18:24:04.818Z,57.83
2022-11-23T18:26:32.368Z,58.95
2022-11-23T18:28:59.827Z,58.42
2022-11-23T18:31:30.052Z,57.47
2022-11-23T18:33:57.493Z,59.58
2022-11-23T18:36:24.658Z,55.15
2022-11-23T18:38:54.592Z,55.13
2022-11-23T18:41:22.744Z,60.00
2022-11-23T18:43:50.277Z,61.38
2022-11-23T18:46:17.667Z,59.15
2022-11-23T18:48:49.901Z,57.10
2022-11-23T18:51:18.074Z,55.20
2022-11-23T18:53:48.141Z,55.60
2022-11-23T18:56:15.521Z,59.08
2022-11-23T18:58:46.121Z,58.72
2022-11-23T19:01:15.661Z,58.30
2022-11-23T19:03:43.386Z,55.75
2022-11-23T19:06:14.534Z,59.17
2022-11-23T19:08:43.871Z,58.13
2022-11-23T19:11:19.899Z,59.17
2022-11-23T19:13:54.427Z,61.42
2022-11-23T19:16:28.226Z,68.47
2022-11-23T19:19:06.576Z,66.47
2022-11-23T19:21:38.118Z,62.72
2022-11-23T19:24:11.818Z,60.38
2022-11-23T19:26:38.957Z,62.60
2022-11-23T19:29:06.309Z,63.80
2022-11-23T19:31:36.285Z,63.15
2022-11-23T19:34:05.810Z,64.47
2022-11-23T19:36:34.470Z,68.60
2022-11-23T19:39:02.768Z,69.57
2022-11-23T19:41:30.979Z,66.70
2022-11-23T19:44:01.391Z,68.80
2022-11-23T19:46:30.607Z,68.10
2022-11-23T19:49:00.897Z,62.47
2022-11-23T19:51:28.370Z,64.55
2022-11-23T19:54:01.144Z,62.83
2022-11-23T19:56:29.052Z,63.85
2022-11-23T19:58:59.228Z,61.05
2022-11-23T20:01:29.188Z,62.80
2022-11-23T20:04:00.209Z,68.35
2022-11-23T20:06:32.326Z,65.82
2022-11-23T20:09:04.711Z,61.28
2022-11-23T20:11:35.399Z,62.35
2022-11-23T20:14:02.792Z,61.22
2022-11-23T20:16:32.176Z,61.05
2022-11-23T20:19:02.022Z,61.70
2022-11-23T20:21:30.551Z,60.25
2022-11-23T20:24:04.459Z,61.42
2022-11-23T20:26:35.808Z,60.00
2022-11-23T20:29:03.871Z,75.85
2022-11-23T20:31:32.447Z,63.33
2022-11-23T20:34:00.199Z,60.83
2022-11-23T20:36:31.700Z,62.78
2022-11-23T20:39:02.442Z,65.88
2022-11-23T20:41:35.112Z,62.80
2022-11-23T20:44:20.922Z,64.22
2022-11-23T20:47:04.019Z,60.33
2022-11-23T20:49:32.204Z,61.17
2022-11-23T20:52:00.244Z,74.07
2022-11-23T20:54:30.691Z,70.82
2022-11-23T20:56:58.508Z,69.88
2022-11-23T20:59:25.890Z,70.50
2022-11-23T21:01:53.353Z,61.80
2022-11-23T21:04:20.479Z,66.03
2022-11-23T21:06:47.811Z,68.15
2022-11-23T21:09:14.958Z,62.50
2022-11-23T21:11:44.947Z,64.57
2022-11-23T21:14:18.480Z,64.65
2022-11-23T21:16:46.668Z,58.75
2022-11-23T21:19:14.275Z,59.10
2022-11-23T21:21:41.753Z,60.13
2022-11-23T21:24:13.770Z,57.78
2022-11-23T21:26:43.633Z,52.92
2022-11-23T21:29:13.215Z,50.28
2022-11-23T21:31:42.628Z,47.75
2022-11-23T21:34:20.176Z,45.13
2022-11-23T21:36:50.805Z,39.35
2022-11-23T21:39:18.647Z,36.22
2022-11-23T21:41:50.159Z,36.92
2022-11-23T21:44:17.943Z,34.38
2022-11-23T21:46:45.432Z,36.78
2022-11-23T21:49:15.128Z,36.35
2022-11-23T21:51:45.276Z,37.17
2022-11-23T21:54:15.164Z,35.53
2022-11-23T21:56:44.260Z,37.20
2022-11-23T21:59:13.917Z,52.13
2022-11-23T22:01:43.640Z,74.65
2022-11-23T22:04:12.758Z,45.08
2022-11-23T22:06:41.070Z,38.88
2022-11-23T22:09:09.939Z,37.70
2022-11-23T22:11:40.084Z,38.00
2022-11-23T22:14:15.454Z,38.25
2022-11-23T22:16:47.727Z,39.72
2022-11-23T22:19:19.984Z,39.95
2022-11-23T22:21:47.502Z,38.13
2022-11-23T22:24:19.575Z,37.72
2022-11-23T22:26:47.820Z,42.42
2022-11-23T22:29:15.608Z,44.78
2022-11-23T22:31:43.441Z,44.97
2022-11-23T22:34:12.472Z,50.05
2022-11-23T22:36:42.612Z,50.28
2022-11-23T22:39:10.443Z,50.67
2022-11-23T22:41:38.451Z,50.80
2022-11-23T22:44:10.081Z,53.17
2022-11-23T22:46:38.569Z,56.10
2022-11-23T22:49:06.050Z,56.92
2022-11-23T22:51:33.499Z,61.28
2022-11-23T22:54:01.583Z,61.42
2022-11-23T22:56:30.508Z,72.90
2022-11-23T22:58:59.979Z,83.65
2022-11-23T23:01:29.981Z,92.88
2022-11-23T23:03:59.292Z,104.65
2022-11-23T23:06:28.786Z,115.18
2022-11-23T23:08:59.841Z,119.60
2022-11-23T23:11:31.011Z,111.65
2022-11-23T23:13:58.854Z,107.90
2022-11-23T23:16:29.403Z,106.85
2022-11-23T23:18:58.190Z,103.05
2022-11-23T23:21:29.667Z,103.65
2022-11-23T23:23:59.699Z,118.07
2022-11-23T23:26:27.661Z,119.97
2022-11-23T23:28:56.529Z,124.75
2022-11-23T23:31:27.619Z,129.73
2022-11-23T23:33:58.655Z,126.30
2022-11-23T23:36:26.203Z,123.95
2022-11-23T23:38:53.808Z,128.68
2022-11-23T23:41:21.422Z,130.15
2022-11-23T23:43:50.839Z,135.77
2022-11-23T23:46:18.454Z,132.07
2022-11-23T23:48:46.017Z,128.93
2022-11-23T23:51:16.092Z,127.25
2022-11-23T23:53:46.268Z,127.68
2022-11-23T23:56:15.979Z,124.35
2022-11-23T23:58:43.977Z,122.30
